^^
Your Local Weather - Clay, NY Station Historical Data
Daily Summary for February 6, 2017 Units:  English    Metric   Both
« Previous Day
Next Day »
Daily Weekly Monthly Yearly Custom
  High: Low: Average:
Temperature: 29.9 °F 21.3 °F 25.7 °F
Dew Point: 19.9 °F 11.2 °F 16.6 °F
Humidity: 75% 59% 68%
Wind Speed: 7.0mph 0.0mph 1.6mph
Wind Gust: 20.0mph - -
Wind- - South
Pressure: 30.14 in 29.95 in -
Precipitation: 0.01 in    
Historical Graphs
 
 
Tabular Data for February 6, 2017
Time Temperature Dew Point Pressure Wind Wind Speed Wind Gust Humidity Rainfall Rate (Hourly) solar
00:04 29.9 °F 18.8 °F 29.95 in WNW 5.0 mph 8.0 mph 63% 0.00 in 0 W/m2
00:10 29.8 °F 18.7 °F 29.96 in NW 5.0 mph 5.0 mph 63% 0.00 in 0 W/m2
00:16 29.7 °F 18.3 °F 29.96 in WNW 4.0 mph 6.0 mph 62% 0.00 in 0 W/m2
00:22 29.7 °F 18.3 °F 29.96 in NW 5.0 mph 5.0 mph 62% 0.00 in 0 W/m2
00:28 29.7 °F 18.3 °F 29.96 in West 5.0 mph 6.0 mph 62% 0.00 in 0 W/m2
00:34 29.7 °F 17.9 °F 29.96 in WNW 6.0 mph 6.0 mph 61% 0.00 in 0 W/m2
00:40 29.7 °F 17.9 °F 29.96 in NW 6.0 mph 6.0 mph 61% 0.00 in 0 W/m2
00:46 29.7 °F 17.9 °F 29.97 in WNW 6.0 mph 12.0 mph 61% 0.00 in 0 W/m2
00:52 29.6 °F 18.2 °F 29.97 in NW 5.0 mph 6.0 mph 62% 0.00 in 0 W/m2
00:58 29.5 °F 18.1 °F 29.98 in NNW 4.0 mph 9.0 mph 62% 0.00 in 0 W/m2
01:04 29.4 °F 18.3 °F 29.98 in NW 5.0 mph 7.0 mph 63% 0.00 in 0 W/m2
01:10 29.4 °F 18.3 °F 29.98 in WNW 5.0 mph 5.0 mph 63% 0.00 in 0 W/m2
01:16 29.2 °F 18.9 °F 29.99 in NW 5.0 mph 5.0 mph 65% 0.00 in 0 W/m2
01:22 29.0 °F 19.4 °F 29.99 in NNW 5.0 mph 11.0 mph 67% 0.00 in 0 W/m2
01:28 28.7 °F 19.8 °F 30.00 in NNW 6.0 mph 11.0 mph 69% 0.00 in 0 W/m2
01:34 28.3 °F 19.8 °F 30.00 in North 7.0 mph 20.0 mph 70% 0.00 in 0 W/m2
01:40 28.1 °F 19.6 °F 30.01 in NNW 6.0 mph 6.0 mph 70% 0.00 in 0 W/m2
01:46 27.8 °F 18.9 °F 30.01 in NW 6.0 mph 8.0 mph 69% 0.00 in 0 W/m2
01:52 27.6 °F 18.8 °F 30.01 in WNW 5.0 mph 7.0 mph 69% 0.00 in 0 W/m2
01:58 27.4 °F 18.6 °F 30.02 in NW 4.0 mph 7.0 mph 69% 0.00 in 0 W/m2
02:04 27.3 °F 18.5 °F 30.02 in North 4.0 mph 5.0 mph 69% 0.00 in 0 W/m2
02:10 27.0 °F 18.2 °F 30.02 in NW 5.0 mph 7.0 mph 69% 0.00 in 0 W/m2
02:16 27.0 °F 18.5 °F 30.03 in NW 4.0 mph 8.0 mph 70% 0.00 in 0 W/m2
02:22 26.9 °F 18.4 °F 30.03 in NW 5.0 mph 5.0 mph 70% 0.00 in 0 W/m2
02:28 26.7 °F 18.2 °F 30.03 in NW 4.0 mph 5.0 mph 70% 0.00 in 0 W/m2
02:34 26.5 °F 17.7 °F 30.03 in NW 4.0 mph 11.0 mph 69% 0.00 in 0 W/m2
02:40 26.3 °F 16.8 °F 30.03 in NNW 5.0 mph 9.0 mph 67% 0.00 in 0 W/m2
02:46 26.0 °F 15.8 °F 30.03 in NNW 5.0 mph 9.0 mph 65% 0.00 in 0 W/m2
02:52 25.8 °F 15.3 °F 30.03 in NW 4.0 mph 7.0 mph 64% 0.00 in 0 W/m2
02:58 25.6 °F 15.1 °F 30.03 in NW 4.0 mph 7.0 mph 64% 0.00 in 0 W/m2
03:04 25.5 °F 14.3 °F 30.03 in NNW 4.0 mph 6.0 mph 62% 0.00 in 0 W/m2
03:10 25.3 °F 13.7 °F 30.04 in NW 5.0 mph 5.0 mph 61% 0.00 in 0 W/m2
03:16 25.1 °F 13.2 °F 30.04 in WNW 5.0 mph 6.0 mph 60% 0.00 in 0 W/m2
03:22 25.0 °F 13.1 °F 30.05 in NW 5.0 mph 5.0 mph 60% 0.00 in 0 W/m2
03:24 25.0 °F 13.1 °F 30.05 in NW 5.0 mph 5.0 mph 60% 0.00 in 0 W/m2
03:30 24.8 °F 12.9 °F 30.05 in WNW 4.0 mph 4.0 mph 60% 0.00 in 0 W/m2
03:36 24.7 °F 12.8 °F 30.06 in WNW 3.0 mph 5.0 mph 60% 0.00 in 0 W/m2
03:42 24.6 °F 12.7 °F 30.05 in NW 3.0 mph 4.0 mph 60% 0.00 in 0 W/m2
03:48 24.5 °F 12.6 °F 30.06 in NW 3.0 mph 6.0 mph 60% 0.00 in 0 W/m2
03:54 24.4 °F 12.9 °F 30.06 in NW 3.0 mph 3.0 mph 61% 0.00 in 0 W/m2
04:00 24.4 °F 12.9 °F 30.06 in NNW 2.0 mph 2.0 mph 61% 0.00 in 0 W/m2
04:06 24.3 °F 12.8 °F 30.07 in NNW 2.0 mph 2.0 mph 61% 0.00 in 0 W/m2
04:12 24.3 °F 13.1 °F 30.09 in NNW 2.0 mph 3.0 mph 62% 0.00 in 0 W/m2
04:18 24.2 °F 12.7 °F 30.09 in NW 2.0 mph 3.0 mph 61% 0.00 in 0 W/m2
04:24 24.2 °F 12.7 °F 30.07 in NNW 2.0 mph 3.0 mph 61% 0.00 in 0 W/m2
04:30 24.0 °F 12.5 °F 30.07 in NW 2.0 mph 2.0 mph 61% 0.00 in 0 W/m2
04:36 24.0 °F 12.1 °F 30.07 in NNW 3.0 mph 6.0 mph 60% 0.00 in 0 W/m2
04:42 23.9 °F 11.6 °F 30.07 in NW 3.0 mph 3.0 mph 59% 0.00 in 0 W/m2
04:48 23.8 °F 11.9 °F 30.08 in WNW 3.0 mph 3.0 mph 60% 0.00 in 0 W/m2
04:54 23.7 °F 11.4 °F 30.07 in WNW 2.0 mph 5.0 mph 59% 0.00 in 0 W/m2
05:00 23.6 °F 11.7 °F 30.08 in WNW 2.0 mph 5.0 mph 60% 0.00 in 0 W/m2
05:06 23.5 °F 11.3 °F 30.08 in NW 2.0 mph 5.0 mph 59% 0.00 in 0 W/m2
05:12 23.4 °F 11.2 °F 30.08 in WNW 2.0 mph 2.0 mph 59% 0.00 in 0 W/m2
05:18 23.2 °F 11.4 °F 30.07 in WNW 2.0 mph 2.0 mph 60% 0.00 in 0 W/m2
05:24 23.2 °F 11.7 °F 30.08 in WNW 1.0 mph 2.0 mph 61% 0.00 in 0 W/m2
05:36 22.9 °F 11.4 °F 30.07 in Calm     61% 0.00 in 0 W/m2
05:42 22.8 °F 11.3 °F 30.07 in Calm   1.0 mph 61% 0.00 in 0 W/m2
05:48 22.7 °F 11.6 °F 30.07 in Calm   1.0 mph 62% 0.00 in 0 W/m2
05:54 22.6 °F 11.9 °F 30.07 in Calm     63% 0.00 in 0 W/m2
06:00 22.6 °F 11.9 °F 30.08 in Calm     63% 0.00 in 0 W/m2
06:06 22.6 °F 11.5 °F 30.07 in Calm   2.0 mph 62% 0.00 in 0 W/m2
06:12 22.6 °F 11.9 °F 30.07 in Calm     63% 0.00 in 0 W/m2
06:18 22.5 °F 11.8 °F 30.08 in Calm     63% 0.00 in 0 W/m2
06:24 22.4 °F 11.7 °F 30.08 in Calm     63% 0.00 in 0 W/m2
06:30 22.4 °F 12.4 °F 30.09 in Calm     65% 0.00 in 0 W/m2
06:36 22.3 °F 12.3 °F 30.08 in Calm     65% 0.00 in 0 W/m2
06:42 22.3 °F 12.0 °F 30.08 in Calm   1.0 mph 64% 0.00 in 0 W/m2
06:48 22.2 °F 11.9 °F 30.09 in Calm   1.0 mph 64% 0.00 in 0 W/m2
06:54 22.2 °F 11.9 °F 30.09 in Calm     64% 0.00 in 0 W/m2
07:00 22.0 °F 11.3 °F 30.09 in Calm     63% 0.00 in 0 W/m2
07:06 21.9 °F 11.6 °F 30.10 in Calm     64% 0.00 in 0 W/m2
07:12 21.7 °F 11.4 °F 30.10 in Calm     64% 0.00 in 0 W/m2
07:18 21.5 °F 11.2 °F 30.10 in Calm     64% 0.00 in 9 W/m2
07:24 21.3 °F 11.4 °F 30.11 in Calm     65% 0.00 in 11 W/m2
07:30 21.3 °F 11.7 °F 30.11 in Calm     66% 0.00 in 18 W/m2
07:36 21.5 °F 11.5 °F 30.11 in Calm     65% 0.00 in 25 W/m2
07:42 21.8 °F 11.5 °F 30.11 in Calm     64% 0.00 in 30 W/m2
07:48 22.0 °F 12.0 °F 30.12 in Calm   1.0 mph 65% 0.00 in 37 W/m2
07:54 22.1 °F 12.1 °F 30.12 in Calm   1.0 mph 65% 0.00 in 33 W/m2
08:00 22.2 °F 12.2 °F 30.12 in WNW 1.0 mph 1.0 mph 65% 0.00 in 46 W/m2
08:06 22.4 °F 12.1 °F 30.12 in Calm   2.0 mph 64% 0.00 in 62 W/m2
08:12 22.6 °F 12.2 °F 30.12 in Calm   1.0 mph 64% 0.00 in 60 W/m2
08:18 22.7 °F 12.3 °F 30.12 in Calm   1.0 mph 64% 0.00 in 63 W/m2
08:24 22.9 °F 12.5 °F 30.12 in Calm   1.0 mph 64% 0.00 in 107 W/m2
08:30 23.1 °F 12.7 °F 30.14 in Calm     64% 0.00 in 67 W/m2
08:36 23.2 °F 12.8 °F 30.13 in WNW 1.0 mph 2.0 mph 64% 0.00 in 113 W/m2
08:42 23.4 °F 13.0 °F 30.13 in WNW 1.0 mph 1.0 mph 64% 0.00 in 132 W/m2
08:48 23.5 °F 13.1 °F 30.12 in West 1.0 mph 2.0 mph 64% 0.00 in 90 W/m2
08:54 23.3 °F 12.9 °F 30.12 in West 1.0 mph 3.0 mph 64% 0.00 in 134 W/m2
09:00 23.4 °F 13.0 °F 30.13 in NNW 1.0 mph 2.0 mph 64% 0.00 in 111 W/m2
09:06 23.6 °F 13.2 °F 30.13 in NNW 1.0 mph 2.0 mph 64% 0.00 in 139 W/m2
09:12 23.7 °F 12.9 °F 30.13 in NNW 1.0 mph 3.0 mph 63% 0.00 in 163 W/m2
09:18 23.6 °F 13.2 °F 30.14 in NNW 1.0 mph 3.0 mph 64% 0.00 in 116 W/m2
09:24 23.7 °F 12.9 °F 30.12 in Calm   1.0 mph 63% 0.00 in 244 W/m2
09:30 24.0 °F 13.2 °F 30.12 in Calm     63% 0.00 in 142 W/m2
09:36 24.3 °F 13.5 °F 30.13 in Calm     63% 0.00 in 171 W/m2
09:42 24.2 °F 13.8 °F 30.13 in SW 1.0 mph 2.0 mph 64% 0.00 in 237 W/m2
09:48 24.1 °F 14.0 °F 30.13 in WSW 2.0 mph 3.0 mph 65% 0.00 in 128 W/m2
09:54 23.7 °F 14.7 °F 30.14 in WNW 2.0 mph 2.0 mph 68% 0.00 in 188 W/m2
10:00 23.8 °F 15.1 °F 30.14 in WNW 1.0 mph 1.0 mph 69% 0.00 in 220 W/m2
10:06 24.2 °F 15.5 °F 30.14 in Calm   1.0 mph 69% 0.00 in 251 W/m2
10:12 24.3 °F 15.9 °F 30.14 in WNW 1.0 mph 1.0 mph 70% 0.00 in 214 W/m2
10:18 24.2 °F 16.1 °F 30.13 in Calm   1.0 mph 71% 0.00 in 250 W/m2
10:24 24.6 °F 16.5 °F 30.13 in Calm     71% 0.00 in 250 W/m2
10:30 24.6 °F 16.9 °F 30.13 in Calm     72% 0.00 in 330 W/m2
10:36 24.0 °F 16.0 °F 30.12 in Calm     71% 0.00 in 132 W/m2
10:42 23.5 °F 15.8 °F 30.12 in Calm     72% 0.00 in 190 W/m2
10:48 24.6 °F 17.5 °F 30.12 in Calm     74% 0.00 in 265 W/m2
10:54 24.8 °F 17.1 °F 30.12 in Calm     72% 0.00 in 207 W/m2
11:00 25.0 °F 17.2 °F 30.12 in Calm   1.0 mph 72% 0.00 in 311 W/m2
11:06 24.1 °F 16.7 °F 30.12 in Calm   2.0 mph 73% 0.00 in 415 W/m2
11:12 25.0 °F 17.9 °F 30.12 in Calm   1.0 mph 74% 0.00 in 513 W/m2
11:18 25.8 °F 17.4 °F 30.13 in WNW 1.0 mph 2.0 mph 70% 0.00 in 250 W/m2
11:24 24.9 °F 17.1 °F 30.13 in WNW 1.0 mph 1.0 mph 72% 0.00 in 265 W/m2
11:30 25.0 °F 17.2 °F 30.13 in WNW 1.0 mph 1.0 mph 72% 0.00 in 239 W/m2
11:36 24.9 °F 17.1 °F 30.12 in Calm   1.0 mph 72% 0.00 in 188 W/m2
11:42 24.8 °F 17.1 °F 30.12 in Calm   2.0 mph 72% 0.00 in 202 W/m2
11:48 24.6 °F 16.9 °F 30.12 in WNW 1.0 mph 2.0 mph 72% 0.00 in 218 W/m2
11:54 24.5 °F 17.1 °F 30.12 in WNW 1.0 mph 1.0 mph 73% 0.00 in 211 W/m2
12:00 24.6 °F 16.9 °F 30.12 in WNW 1.0 mph 1.0 mph 72% 0.00 in 221 W/m2
12:06 25.1 °F 17.3 °F 30.12 in Calm   1.0 mph 72% 0.00 in 276 W/m2
12:12 25.1 °F 17.3 °F 30.11 in Calm     72% 0.00 in 216 W/m2
12:18 25.9 °F 17.8 °F 30.11 in Calm   1.0 mph 71% 0.00 in 232 W/m2
12:24 25.5 °F 17.1 °F 30.10 in Calm     70% 0.00 in 276 W/m2
12:30 25.6 °F 17.2 °F 30.10 in Calm     70% 0.00 in 290 W/m2
12:36 26.2 °F 17.7 °F 30.11 in Calm     70% 0.00 in 271 W/m2
12:42 25.5 °F 17.1 °F 30.09 in WSW 1.0 mph 2.0 mph 70% 0.00 in 250 W/m2
12:48 26.2 °F 17.7 °F 30.09 in WSW 1.0 mph 2.0 mph 70% 0.00 in 239 W/m2
12:54 26.0 °F 17.2 °F 30.09 in Calm   1.0 mph 69% 0.00 in 260 W/m2
13:00 26.4 °F 17.6 °F 30.08 in Calm     69% 0.00 in 241 W/m2
13:06 26.5 °F 17.7 °F 30.08 in SW 1.0 mph 1.0 mph 69% 0.00 in 246 W/m2
13:12 26.7 °F 17.2 °F 30.08 in WSW 1.0 mph 3.0 mph 67% 0.00 in 243 W/m2
13:18 26.8 °F 17.6 °F 30.08 in WSW 2.0 mph 3.0 mph 68% 0.00 in 216 W/m2
13:24 26.9 °F 17.4 °F 30.07 in WSW 1.0 mph 2.0 mph 67% 0.00 in 206 W/m2
13:30 27.1 °F 17.6 °F 30.08 in SSE 2.0 mph 2.0 mph 67% 0.00 in 197 W/m2
13:36 27.2 °F 17.3 °F 30.07 in SSW 1.0 mph 2.0 mph 66% 0.00 in 183 W/m2
13:42 27.3 °F 17.4 °F 30.06 in Calm   1.0 mph 66% 0.00 in 172 W/m2
13:48 27.7 °F 17.1 °F 30.07 in Calm   1.0 mph 64% 0.00 in 171 W/m2
13:54 27.9 °F 17.3 °F 30.06 in SSW 1.0 mph 1.0 mph 64% 0.00 in 163 W/m2
14:00 28.0 °F 17.4 °F 30.06 in Calm   1.0 mph 64% 0.00 in 149 W/m2
14:06 27.7 °F 17.8 °F 30.06 in East 1.0 mph 2.0 mph 66% 0.00 in 141 W/m2
14:12 27.5 °F 17.3 °F 30.06 in East 1.0 mph 3.0 mph 65% 0.00 in 137 W/m2
14:18 27.5 °F 17.6 °F 30.06 in East 1.0 mph 3.0 mph 66% 0.00 in 139 W/m2
14:26 27.6 °F 17.4 °F 30.06 in East 1.0 mph 2.0 mph 65% 0.00 in 123 W/m2
14:32 27.8 °F 17.6 °F 30.06 in East 1.0 mph 1.0 mph 65% 0.00 in 118 W/m2
14:38 28.0 °F 17.7 °F 30.05 in Calm   1.0 mph 65% 0.00 in 107 W/m2
14:44 28.1 °F 17.8 °F 30.06 in Calm     65% 0.00 in 107 W/m2
14:50 28.1 °F 17.8 °F 30.06 in NE 1.0 mph 2.0 mph 65% 0.00 in 95 W/m2
14:56 28.1 °F 17.5 °F 30.06 in NE 1.0 mph 3.0 mph 64% 0.00 in 90 W/m2
15:02 27.7 °F 18.5 °F 30.06 in ENE 1.0 mph 3.0 mph 68% 0.00 in 90 W/m2
15:08 27.4 °F 18.9 °F 30.05 in NE 2.0 mph 3.0 mph 70% 0.00 in 88 W/m2
15:14 27.2 °F 18.7 °F 30.05 in ENE 2.0 mph 2.0 mph 70% 0.00 in 84 W/m2
15:20 27.1 °F 18.9 °F 30.05 in ENE 2.0 mph 2.0 mph 71% 0.00 in 81 W/m2
15:26 27.0 °F 18.8 °F 30.05 in East 2.0 mph 3.0 mph 71% 0.00 in 70 W/m2
15:32 26.8 °F 18.7 °F 30.05 in East 2.0 mph 3.0 mph 71% 0.00 in 60 W/m2
15:38 26.7 °F 18.9 °F 30.04 in ENE 2.0 mph 3.0 mph 72% 0.00 in 54 W/m2
15:44 26.6 °F 18.8 °F 30.05 in NE 2.0 mph 5.0 mph 72% 0.00 in 53 W/m2
15:50 26.6 °F 18.8 °F 30.05 in ENE 2.0 mph 2.0 mph 72% 0.00 in 49 W/m2
15:56 26.6 °F 19.1 °F 30.05 in ENE 2.0 mph 3.0 mph 73% 0.00 in 46 W/m2
16:02 26.6 °F 18.8 °F 30.05 in East 2.0 mph 2.0 mph 72% 0.00 in 42 W/m2
16:08 26.5 °F 18.7 °F 30.05 in East 2.0 mph 2.0 mph 72% 0.00 in 39 W/m2
16:14 26.6 °F 18.8 °F 30.06 in East 1.0 mph 3.0 mph 72% 0.00 in 35 W/m2
16:20 26.4 °F 18.9 °F 30.05 in East 2.0 mph 2.0 mph 73% 0.00 in 30 W/m2
16:28 26.4 °F 19.2 °F 30.05 in East 1.0 mph 2.0 mph 74% 0.00 in 28 W/m2
16:34 26.3 °F 18.8 °F 30.05 in East 1.0 mph 3.0 mph 73% 0.00 in 21 W/m2
16:40 26.2 °F 19.0 °F 30.05 in East 1.0 mph 2.0 mph 74% 0.00 in 18 W/m2
16:46 26.2 °F 18.7 °F 30.05 in ENE 1.0 mph 5.0 mph 73% 0.00 in 18 W/m2
16:52 26.3 °F 18.8 °F 30.05 in East 2.0 mph 2.0 mph 73% 0.00 in 12 W/m2
16:58 26.3 °F 18.8 °F 30.05 in East 1.0 mph 2.0 mph 73% 0.00 in 12 W/m2
17:04 26.3 °F 18.8 °F 30.05 in East 1.0 mph 1.0 mph 73% 0.00 in 11 W/m2
17:10 26.4 °F 18.9 °F 30.05 in Calm     73% 0.00 in 0 W/m2
17:16 26.4 °F 18.9 °F 30.04 in East 1.0 mph 1.0 mph 73% 0.00 in 0 W/m2
17:22 26.4 °F 18.9 °F 30.04 in East 1.0 mph 2.0 mph 73% 0.00 in 0 W/m2
17:28 26.4 °F 18.9 °F 30.03 in ESE 1.0 mph 1.0 mph 73% 0.00 in 0 W/m2
17:34 26.4 °F 18.9 °F 30.03 in East 1.0 mph 2.0 mph 73% 0.00 in 0 W/m2
17:40 26.3 °F 18.8 °F 30.03 in East 1.0 mph 2.0 mph 73% 0.00 in 0 W/m2
17:46 26.3 °F 18.8 °F 30.04 in NNE 2.0 mph 3.0 mph 73% 0.00 in 0 W/m2
17:52 26.3 °F 18.8 °F 30.04 in East 2.0 mph 4.0 mph 73% 0.00 in 0 W/m2
17:58 26.3 °F 18.5 °F 30.03 in SE 2.0 mph 3.0 mph 72% 0.00 in 0 W/m2
18:04 26.3 °F 18.8 °F 30.03 in ESE 1.0 mph 1.0 mph 73% 0.00 in 0 W/m2
18:10 26.3 °F 18.8 °F 30.03 in SE 1.0 mph 1.0 mph 73% 0.00 in 0 W/m2
18:16 26.3 °F 18.8 °F 30.03 in SE 1.0 mph 1.0 mph 73% 0.00 in 0 W/m2
18:22 26.3 °F 18.8 °F 30.03 in SE 1.0 mph 3.0 mph 73% 0.00 in 0 W/m2
18:28 26.3 °F 18.8 °F 30.03 in SE 1.0 mph 3.0 mph 73% 0.00 in 0 W/m2
18:34 26.3 °F 18.8 °F 30.02 in SE 1.0 mph 2.0 mph 73% 0.00 in 0 W/m2
18:40 26.4 °F 18.9 °F 30.03 in SE 1.0 mph 1.0 mph 73% 0.00 in 0 W/m2
18:46 26.4 °F 18.9 °F 30.03 in Calm   2.0 mph 73% 0.00 in 0 W/m2
18:52 26.4 °F 18.9 °F 30.02 in Calm   1.0 mph 73% 0.00 in 0 W/m2
18:58 26.4 °F 18.6 °F 30.02 in East 1.0 mph 3.0 mph 72% 0.00 in 0 W/m2
19:04 26.5 °F 18.7 °F 30.02 in East 1.0 mph 1.0 mph 72% 0.00 in 0 W/m2
19:10 26.5 °F 18.7 °F 30.01 in East 1.0 mph 1.0 mph 72% 0.00 in 0 W/m2
19:16 26.5 °F 18.7 °F 30.01 in East 1.0 mph 2.0 mph 72% 0.00 in 0 W/m2
19:22 26.5 °F 18.7 °F 30.01 in East 1.0 mph 1.0 mph 72% 0.00 in 0 W/m2
19:28 26.6 °F 18.8 °F 30.02 in East 1.0 mph 2.0 mph 72% 0.00 in 0 W/m2
19:34 26.6 °F 18.8 °F 30.02 in East 1.0 mph 2.0 mph 72% 0.00 in 0 W/m2
19:40 26.6 °F 18.8 °F 30.02 in East 1.0 mph 1.0 mph 72% 0.00 in 0 W/m2
19:46 26.7 °F 18.9 °F 30.02 in East 1.0 mph 1.0 mph 72% 0.00 in 0 W/m2
19:52 26.7 °F 18.9 °F 30.01 in East 1.0 mph 1.0 mph 72% 0.00 in 0 W/m2
19:58 26.7 °F 18.9 °F 30.01 in East 1.0 mph 3.0 mph 72% 0.00 in 0 W/m2
20:04 26.7 °F 18.9 °F 30.01 in ENE 1.0 mph 4.0 mph 72% 0.00 in 0 W/m2
20:10 26.7 °F 18.9 °F 30.01 in East 1.0 mph 1.0 mph 72% 0.00 in 0 W/m2
20:16 26.7 °F 18.9 °F 30.00 in ESE 1.0 mph 3.0 mph 72% 0.00 in 0 W/m2
20:22 26.7 °F 18.9 °F 30.00 in ENE 1.0 mph 4.0 mph 72% 0.00 in 0 W/m2
20:28 26.7 °F 18.9 °F 30.00 in ENE 2.0 mph 4.0 mph 72% 0.00 in 0 W/m2
20:34 26.7 °F 19.2 °F 30.00 in ESE 2.0 mph 2.0 mph 73% 0.00 in 0 W/m2
20:40 26.7 °F 19.2 °F 29.99 in ESE 2.0 mph 2.0 mph 73% 0.00 in 0 W/m2
20:46 26.7 °F 19.5 °F 29.99 in ESE 2.0 mph 4.0 mph 74% 0.00 in 0 W/m2
20:52 26.6 °F 19.1 °F 29.99 in ENE 2.0 mph 2.0 mph 73% 0.00 in 0 W/m2
20:58 26.7 °F 19.2 °F 30.00 in ENE 1.0 mph 3.0 mph 73% 0.00 in 0 W/m2
21:06 26.7 °F 19.2 °F 30.00 in SE 2.0 mph 2.0 mph 73% 0.00 in 0 W/m2
21:12 26.7 °F 19.5 °F 29.99 in East 1.0 mph 3.0 mph 74% 0.00 in 0 W/m2
21:18 26.7 °F 19.2 °F 29.99 in NE 2.0 mph 3.0 mph 73% 0.00 in 0 W/m2
21:24 26.7 °F 19.5 °F 29.99 in ENE 2.0 mph 2.0 mph 74% 0.00 in 0 W/m2
21:30 26.7 °F 19.5 °F 29.99 in ENE 1.0 mph 2.0 mph 74% 0.00 in 0 W/m2
21:36 26.7 °F 19.2 °F 29.99 in NE 2.0 mph 3.0 mph 73% 0.00 in 0 W/m2
21:42 26.6 °F 19.1 °F 29.99 in East 2.0 mph 3.0 mph 73% 0.00 in 0 W/m2
21:48 26.6 °F 19.4 °F 29.99 in ENE 2.0 mph 4.0 mph 74% 0.00 in 0 W/m2
21:54 26.6 °F 19.1 °F 29.99 in ESE 2.0 mph 2.0 mph 73% 0.00 in 0 W/m2
22:00 26.6 °F 19.1 °F 29.99 in East 2.0 mph 3.0 mph 73% 0.00 in 0 W/m2
22:06 26.6 °F 19.1 °F 29.99 in ENE 2.0 mph 3.0 mph 73% 0.00 in 0 W/m2
22:12 26.5 °F 19.0 °F 29.98 in ENE 1.0 mph 2.0 mph 73% 0.00 in 0 W/m2
22:18 26.5 °F 19.0 °F 29.98 in ESE 1.0 mph 3.0 mph 73% 0.00 in 0 W/m2
22:24 26.5 °F 19.0 °F 29.98 in ESE 1.0 mph 2.0 mph 73% 0.00 in 0 W/m2
22:30 26.5 °F 19.0 °F 29.98 in East 1.0 mph 1.0 mph 73% 0.00 in 0 W/m2
22:36 26.5 °F 19.3 °F 29.98 in East 1.0 mph 2.0 mph 74% 0.00 in 0 W/m2
22:42 26.6 °F 19.1 °F 29.99 in ENE 1.0 mph 1.0 mph 73% 0.00 in 0 W/m2
22:48 26.7 °F 19.2 °F 29.98 in East 1.0 mph 3.0 mph 73% 0.00 in 0 W/m2
22:54 26.7 °F 19.5 °F 29.98 in East 1.0 mph 1.0 mph 74% 0.00 in 0 W/m2
23:00 26.7 °F 19.5 °F 29.98 in Calm     74% 0.00 in 0 W/m2
23:06 26.7 °F 19.8 °F 29.98 in Calm     75% 0.00 in 0 W/m2
23:12 26.7 °F 19.5 °F 29.98 in ENE 1.0 mph 2.0 mph 74% 0.00 in 0 W/m2
23:18 26.7 °F 19.8 °F 29.98 in East 2.0 mph 3.0 mph 75% 0.00 in 0 W/m2
23:24 26.7 °F 19.8 °F 29.98 in East 2.0 mph 3.0 mph 75% 0.00 in 0 W/m2
23:30 26.7 °F 19.8 °F 29.98 in NE 2.0 mph 2.0 mph 75% 0.00 in 0 W/m2
23:36 26.8 °F 19.9 °F 29.98 in NE 1.0 mph 2.0 mph 75% 0.00 in 0 W/m2
23:42 26.8 °F 19.9 °F 29.98 in NE 2.0 mph 2.0 mph 75% 0.00 in 0 W/m2
23:48 26.8 °F 19.9 °F 29.97 in ENE 3.0 mph 5.0 mph 75% 0.00 in 0 W/m2
23:54 26.8 °F 19.9 °F 29.97 in East 2.0 mph 4.0 mph 75% 0.00 in 0 W/m2
Country Meadow, Clay, NY, USA
Compliments of Weather Underground - 2 mb